AAL2681 KDEN-KBIL
Flight info
| Callsign | AAL2681 |
|---|---|
| Flight time | N/A |
| Altitude | 36000 |
| Route | XXWNG1 XXWNG BGHRN BGHRN3 |
| Aircraft | A321/M-SDE3FGHIRWY/LB1 |
Departure
| Time | 2026-05-05 02:54 |
|---|---|
| Airport | Denver International Airport (KDEN) |
Arrival
| Time | N/A |
|---|---|
| Airport | Billings Logan International Airport (KBIL) |
| Time | Latitude | Longitude | Altitude | Speed | Heading |
|---|---|---|---|---|---|
| 2026-05-05 02:31 | 39.85936 | -104.67639 | 5387 ft | 0 kts | 183° |
| 2026-05-05 02:44 | 39.85947 | -104.67638 | 5383 ft | 4 kts | 182° |
| 2026-05-05 02:44 | 39.85974 | -104.67635 | 5384 ft | 4 kts | 196° |
| 2026-05-05 02:45 | 39.85996 | -104.67621 | 5386 ft | 4 kts | 232° |
| 2026-05-05 02:45 | 39.86005 | -104.67595 | 5386 ft | 1 kts | 268° |
| 2026-05-05 02:45 | 39.86005 | -104.67594 | 5386 ft | 0 kts | 268° |
| 2026-05-05 02:47 | 39.86004 | -104.67601 | 5386 ft | 2 kts | 268° |
| 2026-05-05 02:47 | 39.86004 | -104.67629 | 5386 ft | 6 kts | 269° |
| 2026-05-05 02:48 | 39.86004 | -104.67708 | 5385 ft | 11 kts | 270° |
| 2026-05-05 02:48 | 39.86006 | -104.67833 | 5386 ft | 16 kts | 271° |
| 2026-05-05 02:48 | 39.86011 | -104.67998 | 5386 ft | 20 kts | 281° |
| 2026-05-05 02:48 | 39.86014 | -104.68173 | 5386 ft | 17 kts | 245° |
| 2026-05-05 02:49 | 39.85930 | -104.68249 | 5384 ft | 16 kts | 243° |
| 2026-05-05 02:49 | 39.85894 | -104.68387 | 5369 ft | 15 kts | 213° |
| 2026-05-05 02:49 | 39.85824 | -104.68395 | 5366 ft | 9 kts | 175° |
| 2026-05-05 02:49 | 39.85756 | -104.68397 | 5369 ft | 11 kts | 185° |
| 2026-05-05 02:50 | 39.85686 | -104.68466 | 5368 ft | 15 kts | 240° |
| 2026-05-05 02:50 | 39.85594 | -104.68517 | 5369 ft | 16 kts | 181° |
| 2026-05-05 02:50 | 39.85477 | -104.68518 | 5373 ft | 18 kts | 181° |
| 2026-05-05 02:50 | 39.85338 | -104.68520 | 5372 ft | 22 kts | 180° |
| 2026-05-05 02:51 | 39.85211 | -104.68585 | 5367 ft | 19 kts | 251° |
| 2026-05-05 02:51 | 39.85202 | -104.68786 | 5361 ft | 26 kts | 270° |
| 2026-05-05 02:51 | 39.85196 | -104.69035 | 5352 ft | 26 kts | 269° |
| 2026-05-05 02:51 | 39.85198 | -104.69232 | 5346 ft | 21 kts | 273° |
| 2026-05-05 02:52 | 39.85201 | -104.69410 | 5342 ft | 20 kts | 269° |
| 2026-05-05 02:52 | 39.85203 | -104.69510 | 5334 ft | 0 kts | 272° |
| 2026-05-05 02:52 | 39.85203 | -104.69512 | 5334 ft | 2 kts | 272° |
| 2026-05-05 02:52 | 39.85204 | -104.69563 | 5333 ft | 8 kts | 272° |
| 2026-05-05 02:53 | 39.85221 | -104.69646 | 5337 ft | 11 kts | 318° |
| 2026-05-05 02:53 | 39.85312 | -104.69661 | 5336 ft | 18 kts | 1° |
| 2026-05-05 02:53 | 39.85640 | -104.69655 | 5342 ft | 79 kts | 1° |
| 2026-05-05 02:53 | 39.86401 | -104.69649 | 5333 ft | 138 kts | 0° |
| 2026-05-05 02:54 | 39.87526 | -104.69637 | 5336 ft | 183 kts | 0° |
| 2026-05-05 02:54 | 39.88861 | -104.69651 | 5678 ft | 199 kts | 358° |
| 2026-05-05 02:54 | 39.90248 | -104.69642 | 6362 ft | 199 kts | 0° |
| 2026-05-05 02:54 | 39.91630 | -104.69602 | 7056 ft | 199 kts | 1° |
| 2026-05-05 02:55 | 39.93059 | -104.69555 | 7420 ft | 214 kts | 1° |
| 2026-05-05 02:55 | 39.94600 | -104.69510 | 7556 ft | 229 kts | 1° |
| 2026-05-05 02:55 | 39.96232 | -104.69467 | 7699 ft | 241 kts | 0° |
| 2026-05-05 02:55 | 39.97933 | -104.69426 | 7932 ft | 246 kts | 0° |
| 2026-05-05 02:56 | 39.99644 | -104.69385 | 8238 ft | 247 kts | 0° |
| 2026-05-05 02:56 | 40.01368 | -104.69344 | 8529 ft | 249 kts | 0° |
| 2026-05-05 02:56 | 40.03163 | -104.69304 | 8616 ft | 269 kts | 0° |
| 2026-05-05 02:56 | 40.05106 | -104.69142 | 8907 ft | 286 kts | 5° |
| 2026-05-05 02:57 | 40.07106 | -104.68852 | 9499 ft | 291 kts | 6° |
| 2026-05-05 02:57 | 40.09128 | -104.68516 | 10134 ft | 295 kts | 7° |
| 2026-05-05 02:57 | 40.11226 | -104.68156 | 10378 ft | 315 kts | 7° |
| 2026-05-05 02:57 | 40.13446 | -104.67781 | 10511 ft | 336 kts | 7° |
| 2026-05-05 02:58 | 40.15821 | -104.67466 | 10873 ft | 347 kts | 359° |
| 2026-05-05 02:58 | 40.18200 | -104.68055 | 11420 ft | 351 kts | 342° |
| 2026-05-05 02:58 | 40.20573 | -104.68894 | 12029 ft | 355 kts | 346° |
| 2026-05-05 02:58 | 40.22993 | -104.69573 | 12640 ft | 358 kts | 348° |
| 2026-05-05 02:59 | 40.25451 | -104.70185 | 13234 ft | 361 kts | 349° |
| 2026-05-05 02:59 | 40.27932 | -104.70790 | 13808 ft | 364 kts | 349° |
| 2026-05-05 02:59 | 40.30430 | -104.71421 | 14398 ft | 367 kts | 348° |
| 2026-05-05 02:59 | 40.32944 | -104.72088 | 14976 ft | 370 kts | 348° |
| 2026-05-05 03:00 | 40.35472 | -104.72787 | 15544 ft | 373 kts | 347° |
| 2026-05-05 03:00 | 40.38022 | -104.73511 | 16106 ft | 376 kts | 347° |
| 2026-05-05 03:00 | 40.40589 | -104.74246 | 16644 ft | 379 kts | 347° |
| 2026-05-05 03:00 | 40.43180 | -104.74987 | 17176 ft | 383 kts | 347° |
| 2026-05-05 03:01 | 40.45790 | -104.75730 | 17698 ft | 385 kts | 347° |
| 2026-05-05 03:01 | 40.48422 | -104.76475 | 18207 ft | 388 kts | 347° |
| 2026-05-05 03:01 | 40.51074 | -104.77225 | 18702 ft | 391 kts | 347° |
| 2026-05-05 03:01 | 40.53755 | -104.77981 | 19194 ft | 394 kts | 347° |
| 2026-05-05 03:02 | 40.56446 | -104.78740 | 19675 ft | 397 kts | 347° |
| 2026-05-05 03:02 | 40.59161 | -104.79509 | 20153 ft | 400 kts | 347° |
| 2026-05-05 03:02 | 40.61893 | -104.80289 | 20626 ft | 403 kts | 347° |
| 2026-05-05 03:02 | 40.64646 | -104.81077 | 21093 ft | 406 kts | 347° |
| 2026-05-05 03:03 | 40.67419 | -104.81869 | 21542 ft | 409 kts | 347° |
| 2026-05-05 03:03 | 40.70211 | -104.82669 | 21981 ft | 412 kts | 347° |
| 2026-05-05 03:03 | 40.73020 | -104.83475 | 22402 ft | 415 kts | 347° |
| 2026-05-05 03:03 | 40.75850 | -104.84284 | 22799 ft | 417 kts | 347° |
| 2026-05-05 03:04 | 40.78637 | -104.85380 | 23170 ft | 419 kts | 338° |
| 2026-05-05 03:04 | 40.81256 | -104.87084 | 23538 ft | 422 kts | 330° |
| 2026-05-05 03:04 | 40.83816 | -104.89001 | 23906 ft | 424 kts | 330° |
| 2026-05-05 03:04 | 40.86393 | -104.90934 | 24261 ft | 427 kts | 330° |
| 2026-05-05 03:05 | 40.88945 | -104.92849 | 24606 ft | 429 kts | 330° |
| 2026-05-05 03:05 | 40.91550 | -104.94803 | 24941 ft | 431 kts | 330° |
| 2026-05-05 03:05 | 40.94166 | -104.96764 | 25259 ft | 434 kts | 330° |
| 2026-05-05 03:05 | 40.96798 | -104.98736 | 25577 ft | 436 kts | 330° |
| 2026-05-05 03:06 | 40.99443 | -105.00719 | 25880 ft | 438 kts | 330° |
| 2026-05-05 03:06 | 41.02109 | -105.02719 | 26170 ft | 441 kts | 330° |
| 2026-05-05 03:06 | 41.04779 | -105.04728 | 26447 ft | 443 kts | 330° |
| 2026-05-05 03:06 | 41.07465 | -105.06747 | 26718 ft | 445 kts | 330° |
| 2026-05-05 03:07 | 41.10167 | -105.08780 | 26993 ft | 447 kts | 330° |
| 2026-05-05 03:07 | 41.12877 | -105.10822 | 27259 ft | 449 kts | 330° |
| 2026-05-05 03:07 | 41.15598 | -105.12872 | 27539 ft | 451 kts | 330° |
| 2026-05-05 03:07 | 41.18335 | -105.14937 | 27811 ft | 453 kts | 330° |
| 2026-05-05 03:08 | 41.21079 | -105.17008 | 28069 ft | 455 kts | 330° |
| 2026-05-05 03:08 | 41.23833 | -105.19090 | 28304 ft | 457 kts | 330° |
| 2026-05-05 03:08 | 41.26601 | -105.21185 | 28517 ft | 459 kts | 330° |
| 2026-05-05 03:08 | 41.29382 | -105.23295 | 28753 ft | 460 kts | 330° |
| 2026-05-05 03:09 | 41.32166 | -105.25412 | 28990 ft | 462 kts | 330° |
| 2026-05-05 03:09 | 41.34018 | -105.26820 | 29133 ft | 463 kts | 330° |
| 2026-05-05 03:09 | 41.37774 | -105.29677 | 29419 ft | 465 kts | 330° |
| 2026-05-05 03:09 | 41.40589 | -105.31817 | 29628 ft | 467 kts | 330° |
| 2026-05-05 03:10 | 41.42460 | -105.33240 | 29771 ft | 468 kts | 330° |
| 2026-05-05 03:10 | 41.45291 | -105.35398 | 29972 ft | 470 kts | 330° |
| 2026-05-05 03:10 | 41.48183 | -105.37446 | 30178 ft | 472 kts | 335° |
| 2026-05-05 03:10 | 41.51168 | -105.39288 | 30390 ft | 473 kts | 335° |
| 2026-05-05 03:11 | 41.54158 | -105.41133 | 30594 ft | 475 kts | 335° |
| 2026-05-05 03:11 | 41.57152 | -105.42977 | 30880 ft | 474 kts | 335° |
| 2026-05-05 03:11 | 41.60144 | -105.44819 | 31183 ft | 473 kts | 335° |
| 2026-05-05 03:11 | 41.63127 | -105.46661 | 31458 ft | 472 kts | 335° |
| 2026-05-05 03:12 | 41.66111 | -105.48513 | 31740 ft | 472 kts | 335° |
| 2026-05-05 03:12 | 41.69087 | -105.50364 | 32033 ft | 471 kts | 335° |
| 2026-05-05 03:12 | 41.72054 | -105.52209 | 32333 ft | 470 kts | 335° |
| 2026-05-05 03:12 | 41.75015 | -105.54048 | 32605 ft | 469 kts | 335° |
| 2026-05-05 03:13 | 41.77971 | -105.55882 | 32877 ft | 468 kts | 335° |
| 2026-05-05 03:13 | 41.80927 | -105.57716 | 33142 ft | 468 kts | 335° |
| 2026-05-05 03:13 | 41.83838 | -105.59526 | 33394 ft | 467 kts | 335° |
| 2026-05-05 03:13 | 41.86821 | -105.61388 | 33660 ft | 466 kts | 335° |
| 2026-05-05 03:14 | 41.89760 | -105.63227 | 33911 ft | 466 kts | 335° |
| 2026-05-05 03:14 | 41.92695 | -105.65065 | 34160 ft | 465 kts | 335° |
| 2026-05-05 03:14 | 41.95629 | -105.66902 | 34396 ft | 465 kts | 335° |
| 2026-05-05 03:14 | 41.98564 | -105.68739 | 34617 ft | 465 kts | 335° |
| 2026-05-05 03:15 | 42.01493 | -105.70579 | 34843 ft | 465 kts | 335° |
| 2026-05-05 03:15 | 42.04420 | -105.72418 | 35069 ft | 464 kts | 335° |
| 2026-05-05 03:15 | 42.07342 | -105.74256 | 35305 ft | 464 kts | 335° |
| 2026-05-05 03:15 | 42.10265 | -105.76095 | 35524 ft | 463 kts | 335° |
| 2026-05-05 03:16 | 42.13179 | -105.77928 | 35735 ft | 462 kts | 335° |
| 2026-05-05 03:16 | 42.16095 | -105.79766 | 35931 ft | 462 kts | 334° |
| 2026-05-05 03:16 | 42.19008 | -105.81604 | 36004 ft | 461 kts | 335° |
| 2026-05-05 03:17 | 42.24772 | -105.85242 | 36009 ft | 460 kts | 334° |
| 2026-05-05 03:17 | 42.30558 | -105.88911 | 36009 ft | 460 kts | 334° |
| 2026-05-05 03:18 | 42.36351 | -105.92586 | 36009 ft | 460 kts | 334° |
| 2026-05-05 03:18 | 42.42150 | -105.96263 | 36008 ft | 460 kts | 334° |
| 2026-05-05 03:19 | 42.50858 | -106.01814 | 36016 ft | 462 kts | 334° |
| 2026-05-05 03:19 | 42.56673 | -106.05541 | 36024 ft | 462 kts | 334° |
| 2026-05-05 03:20 | 42.62487 | -106.09262 | 36028 ft | 462 kts | 334° |
| 2026-05-05 03:20 | 42.68306 | -106.12985 | 36035 ft | 462 kts | 334° |
| 2026-05-05 03:21 | 42.74109 | -106.16719 | 36038 ft | 461 kts | 334° |
| 2026-05-05 03:21 | 42.79889 | -106.20456 | 36038 ft | 460 kts | 334° |
| 2026-05-05 03:22 | 42.85669 | -106.24188 | 36037 ft | 459 kts | 334° |
| 2026-05-05 03:22 | 42.91441 | -106.27902 | 36036 ft | 458 kts | 334° |
| 2026-05-05 03:23 | 42.97194 | -106.31634 | 36035 ft | 458 kts | 334° |
| 2026-05-05 03:23 | 43.02941 | -106.35385 | 36034 ft | 458 kts | 334° |
| 2026-05-05 03:24 | 43.08687 | -106.39122 | 36031 ft | 457 kts | 334° |
| 2026-05-05 03:24 | 43.14436 | -106.42867 | 36030 ft | 458 kts | 334° |
| 2026-05-05 03:25 | 43.20182 | -106.46622 | 36031 ft | 458 kts | 334° |
| 2026-05-05 03:25 | 43.25926 | -106.50388 | 36032 ft | 458 kts | 334° |
| 2026-05-05 03:26 | 43.31668 | -106.54162 | 36032 ft | 457 kts | 334° |
| 2026-05-05 03:26 | 43.37405 | -106.57934 | 36032 ft | 457 kts | 334° |
| 2026-05-05 03:27 | 43.43144 | -106.61716 | 36033 ft | 457 kts | 334° |
| 2026-05-05 03:27 | 43.48876 | -106.65503 | 36033 ft | 457 kts | 334° |
| 2026-05-05 03:28 | 43.54600 | -106.69295 | 36033 ft | 457 kts | 334° |
| 2026-05-05 03:28 | 43.60291 | -106.73072 | 36032 ft | 456 kts | 334° |
| 2026-05-05 03:29 | 43.66011 | -106.76881 | 36031 ft | 456 kts | 334° |
| 2026-05-05 03:29 | 43.71730 | -106.80691 | 36029 ft | 456 kts | 334° |
| 2026-05-05 03:30 | 43.77452 | -106.84505 | 36027 ft | 457 kts | 334° |
| 2026-05-05 03:30 | 43.83174 | -106.88338 | 35801 ft | 457 kts | 334° |
| 2026-05-05 03:31 | 43.86030 | -106.90252 | 35550 ft | 455 kts | 334° |
| 2026-05-05 03:31 | 43.88871 | -106.92160 | 35300 ft | 454 kts | 334° |
| 2026-05-05 03:31 | 43.91713 | -106.94071 | 35049 ft | 452 kts | 334° |
| 2026-05-05 03:31 | 43.94538 | -106.95968 | 34799 ft | 451 kts | 334° |
| 2026-05-05 03:32 | 43.97357 | -106.97861 | 34549 ft | 449 kts | 334° |
| 2026-05-05 03:32 | 44.00165 | -106.99750 | 34293 ft | 447 kts | 334° |
| 2026-05-05 03:32 | 44.02962 | -107.01634 | 34048 ft | 446 kts | 334° |
| 2026-05-05 03:32 | 44.05750 | -107.03516 | 33798 ft | 445 kts | 334° |
| 2026-05-05 03:33 | 44.08527 | -107.05391 | 33551 ft | 444 kts | 334° |
| 2026-05-05 03:33 | 44.11301 | -107.07271 | 33298 ft | 443 kts | 334° |
| 2026-05-05 03:33 | 44.14061 | -107.09144 | 33048 ft | 441 kts | 334° |
| 2026-05-05 03:33 | 44.16815 | -107.11012 | 32797 ft | 439 kts | 334° |
| 2026-05-05 03:34 | 44.19559 | -107.12875 | 32547 ft | 438 kts | 334° |
| 2026-05-05 03:34 | 44.22289 | -107.14733 | 32297 ft | 436 kts | 334° |
| 2026-05-05 03:34 | 44.24977 | -107.16561 | 32048 ft | 435 kts | 334° |
| 2026-05-05 03:34 | 44.27697 | -107.18411 | 31803 ft | 434 kts | 334° |
| 2026-05-05 03:35 | 44.30401 | -107.20251 | 31549 ft | 431 kts | 334° |
| 2026-05-05 03:35 | 44.33095 | -107.22089 | 31297 ft | 430 kts | 334° |
| 2026-05-05 03:35 | 44.35778 | -107.23924 | 31050 ft | 429 kts | 333° |
| 2026-05-05 03:35 | 44.38447 | -107.25754 | 30798 ft | 427 kts | 333° |
| 2026-05-05 03:36 | 44.41109 | -107.27581 | 30549 ft | 425 kts | 333° |
| 2026-05-05 03:36 | 44.43760 | -107.29399 | 30297 ft | 423 kts | 334° |
| 2026-05-05 03:36 | 44.46402 | -107.31208 | 30049 ft | 422 kts | 334° |
| 2026-05-05 03:36 | 44.49021 | -107.33001 | 29691 ft | 417 kts | 334° |
| 2026-05-05 03:37 | 44.51617 | -107.34783 | 29238 ft | 415 kts | 333° |
| 2026-05-05 03:37 | 44.54199 | -107.36559 | 28786 ft | 412 kts | 333° |
| 2026-05-05 03:37 | 44.56767 | -107.38330 | 28360 ft | 410 kts | 333° |
| 2026-05-05 03:37 | 44.59321 | -107.40094 | 27936 ft | 408 kts | 333° |
| 2026-05-05 03:38 | 44.61861 | -107.41850 | 27504 ft | 406 kts | 333° |
| 2026-05-05 03:38 | 44.64383 | -107.43592 | 27085 ft | 404 kts | 333° |
| 2026-05-05 03:38 | 44.66899 | -107.45329 | 26671 ft | 401 kts | 333° |
| 2026-05-05 03:38 | 44.69398 | -107.47052 | 26251 ft | 400 kts | 333° |
| 2026-05-05 03:39 | 44.71882 | -107.48772 | 25836 ft | 397 kts | 333° |
| 2026-05-05 03:39 | 44.74358 | -107.50493 | 25409 ft | 395 kts | 333° |
| 2026-05-05 03:39 | 44.76817 | -107.52201 | 24979 ft | 393 kts | 333° |
| 2026-05-05 03:39 | 44.79262 | -107.53897 | 24552 ft | 391 kts | 333° |
| 2026-05-05 03:40 | 44.81698 | -107.55589 | 24110 ft | 389 kts | 333° |
| 2026-05-05 03:40 | 44.84118 | -107.57272 | 23672 ft | 387 kts | 333° |
| 2026-05-05 03:40 | 44.86526 | -107.58949 | 23225 ft | 385 kts | 333° |
| 2026-05-05 03:40 | 44.88925 | -107.60620 | 22783 ft | 383 kts | 333° |
| 2026-05-05 03:41 | 44.91305 | -107.62280 | 22337 ft | 381 kts | 333° |
| 2026-05-05 03:41 | 44.93674 | -107.63934 | 21890 ft | 379 kts | 333° |
| 2026-05-05 03:41 | 44.96029 | -107.65582 | 21447 ft | 376 kts | 333° |
| 2026-05-05 03:41 | 44.98365 | -107.67220 | 21001 ft | 374 kts | 333° |
| 2026-05-05 03:42 | 45.00689 | -107.68848 | 20565 ft | 371 kts | 333° |
| 2026-05-05 03:42 | 45.02997 | -107.70466 | 20117 ft | 369 kts | 333° |
| 2026-05-05 03:42 | 45.05280 | -107.72069 | 19682 ft | 364 kts | 333° |
| 2026-05-05 03:42 | 45.07528 | -107.73649 | 19255 ft | 358 kts | 333° |
| 2026-05-05 03:43 | 45.09735 | -107.75202 | 18834 ft | 352 kts | 333° |
| 2026-05-05 03:43 | 45.11909 | -107.76728 | 18416 ft | 346 kts | 333° |
| 2026-05-05 03:43 | 45.14047 | -107.78228 | 18006 ft | 340 kts | 333° |
| 2026-05-05 03:43 | 45.16148 | -107.79711 | 17609 ft | 335 kts | 333° |
| 2026-05-05 03:44 | 45.18212 | -107.81171 | 17203 ft | 330 kts | 333° |
| 2026-05-05 03:44 | 45.20256 | -107.82614 | 16797 ft | 327 kts | 333° |
| 2026-05-05 03:44 | 45.22288 | -107.84049 | 16405 ft | 325 kts | 333° |
| 2026-05-05 03:44 | 45.24248 | -107.85627 | 16014 ft | 323 kts | 324° |
| 2026-05-05 03:45 | 45.25970 | -107.87587 | 15637 ft | 321 kts | 320° |
| 2026-05-05 03:45 | 45.27683 | -107.89593 | 15250 ft | 319 kts | 320° |
| 2026-05-05 03:45 | 45.29394 | -107.91589 | 14865 ft | 317 kts | 320° |
| 2026-05-05 03:45 | 45.31092 | -107.93570 | 14479 ft | 315 kts | 320° |
| 2026-05-05 03:46 | 45.32785 | -107.95541 | 14112 ft | 313 kts | 320° |
| 2026-05-05 03:46 | 45.34466 | -107.97501 | 13740 ft | 312 kts | 320° |
| 2026-05-05 03:46 | 45.36136 | -107.99454 | 13365 ft | 310 kts | 320° |
| 2026-05-05 03:46 | 45.37793 | -108.01398 | 12996 ft | 308 kts | 320° |
| 2026-05-05 03:47 | 45.39441 | -108.03331 | 12629 ft | 306 kts | 320° |
| 2026-05-05 03:47 | 45.41080 | -108.05250 | 12265 ft | 304 kts | 320° |
| 2026-05-05 03:47 | 45.42712 | -108.07160 | 11905 ft | 303 kts | 320° |
| 2026-05-05 03:47 | 45.44335 | -108.09061 | 11529 ft | 301 kts | 320° |
| 2026-05-05 03:48 | 45.45945 | -108.10949 | 11167 ft | 299 kts | 320° |
| 2026-05-05 03:48 | 45.47547 | -108.12832 | 10807 ft | 298 kts | 320° |
| 2026-05-05 03:48 | 45.49139 | -108.14707 | 10448 ft | 296 kts | 320° |
| 2026-05-05 03:48 | 45.50722 | -108.16572 | 10091 ft | 294 kts | 320° |
| 2026-05-05 03:49 | 45.52293 | -108.18425 | 9732 ft | 293 kts | 320° |
| 2026-05-05 03:49 | 45.53979 | -108.20026 | 9378 ft | 291 kts | 334° |
| 2026-05-05 03:49 | 45.55863 | -108.20951 | 9210 ft | 282 kts | 346° |
| 2026-05-05 03:49 | 45.57734 | -108.21622 | 9049 ft | 274 kts | 345° |
| 2026-05-05 03:50 | 45.59563 | -108.22290 | 8772 ft | 270 kts | 345° |
| 2026-05-05 03:50 | 45.61377 | -108.22959 | 8455 ft | 269 kts | 345° |
| 2026-05-05 03:50 | 45.63183 | -108.23624 | 8097 ft | 267 kts | 345° |
| 2026-05-05 03:50 | 45.64976 | -108.24283 | 7703 ft | 265 kts | 345° |
| 2026-05-05 03:51 | 45.66747 | -108.24936 | 7113 ft | 261 kts | 345° |
| 2026-05-05 03:51 | 45.68468 | -108.25582 | 6733 ft | 248 kts | 342° |
| 2026-05-05 03:51 | 45.69872 | -108.26823 | 6635 ft | 237 kts | 307° |
| 2026-05-05 03:51 | 45.70740 | -108.28767 | 7481 ft | 217 kts | 306° |
| 2026-05-05 03:52 | 45.71665 | -108.30248 | 8701 ft | 193 kts | 319° |
| 2026-05-05 03:52 | 45.72769 | -108.31573 | 8694 ft | 229 kts | 324° |
| 2026-05-05 03:52 | 45.74133 | -108.32974 | 8552 ft | 251 kts | 322° |
| 2026-05-05 03:52 | 45.75396 | -108.34787 | 7925 ft | 265 kts | 301° |
| 2026-05-05 03:53 | 45.76188 | -108.37237 | 7170 ft | 279 kts | 291° |
| 2026-05-05 03:53 | 45.76921 | -108.39897 | 6301 ft | 287 kts | 291° |
| 2026-05-05 03:53 | 45.77632 | -108.42457 | 6075 ft | 264 kts | 291° |
| 2026-05-05 03:53 | 45.78068 | -108.44010 | 5992 ft | 246 kts | 291° |